Time;durP1;ratioP1;P1;durP2;ratioP2;P2;SDS_P1;SDS_P2;PMS_P1;PMS_P2;Temp;Humidity;BMP_temperature;BMP_pressure;BME280_temperature;BME280_humidity;BME280_pressure;Samples;Min_cycle;Max_cycle;Signal;HPM_P1;HPM_P2
2023/07/03 00:02:04;;;;;;;;;3.25;3.25;;;;;16.82;56.62;99307.28;5095159;28;8822;-59
2023/07/03 00:04:35;;;;;;;;;3.00;3.00;;;;;16.78;56.49;99310.50;5095567;28;8942;-58
2023/07/03 00:07:04;;;;;;;;;4.00;3.00;;;;;16.73;56.92;99308.34;5095017;28;8842;-60
2023/07/03 00:09:32;;;;;;;;;1.00;1.00;;;;;16.68;57.11;99308.03;5095560;28;9484;-60
2023/07/03 00:12:00;;;;;;;;;4.00;4.00;;;;;16.62;57.32;99311.44;5094605;28;8806;-60
2023/07/03 00:14:27;;;;;;;;;3.80;3.00;;;;;16.55;56.54;99307.75;5094382;28;8818;-59
2023/07/03 00:16:56;;;;;;;;;5.20;4.40;;;;;16.52;57.22;99312.66;5095620;28;8853;-60
2023/07/03 00:19:26;;;;;;;;;2.60;1.40;;;;;16.46;56.87;99308.81;5094636;28;8814;-58
2023/07/03 00:21:59;;;;;;;;;1.80;1.80;;;;;16.42;57.14;99306.66;5095126;28;9016;-60
2023/07/03 00:24:26;;;;;;;;;3.60;3.60;;;;;16.36;57.01;99308.16;5094913;28;8936;-60
2023/07/03 00:26:54;;;;;;;;;3.00;2.20;;;;;16.32;57.32;99306.81;5095392;28;9486;-58
2023/07/03 00:29:22;;;;;;;;;3.00;3.00;;;;;16.29;57.57;99306.31;5095207;28;8830;-60
2023/07/03 00:31:49;;;;;;;;;3.00;3.00;;;;;16.28;57.19;99305.50;5094989;28;8796;-60
2023/07/03 00:34:18;;;;;;;;;1.00;1.00;;;;;16.27;57.49;99309.19;5095278;28;8810;-60
2023/07/03 00:36:46;;;;;;;;;4.00;3.50;;;;;16.23;57.62;99307.88;5095384;28;8852;-60
2023/07/03 00:39:14;;;;;;;;;1.00;1.00;;;;;16.23;57.26;99309.69;5095398;28;8822;-60
2023/07/03 00:41:42;;;;;;;;;2.20;1.00;;;;;16.20;57.29;99299.31;5095033;28;8929;-60
2023/07/03 00:44:10;;;;;;;;;1.40;1.00;;;;;16.16;57.80;99299.84;5098071;28;8961;-60
2023/07/03 00:46:37;;;;;;;;;4.00;4.00;;;;;16.11;57.61;99296.81;5099068;28;8968;-60
2023/07/03 00:49:05;;;;;;;;;4.00;3.25;;;;;16.06;57.73;99310.75;5098633;28;8802;-60
2023/07/03 00:51:33;;;;;;;;;4.50;3.25;;;;;16.03;57.89;99307.59;5098542;28;8848;-59
2023/07/03 00:54:00;;;;;;;;;2.60;2.60;;;;;15.99;57.52;99306.28;5097993;28;8817;-60
2023/07/03 00:56:29;;;;;;;;;0.00;0.00;;;;;15.93;57.41;99304.25;5098421;28;8840;-59
2023/07/03 00:58:57;;;;;;;;;1.20;0.20;;;;;15.89;57.87;99309.13;5098157;28;8840;-60
2023/07/03 01:01:25;;;;;;;;;1.50;1.00;;;;;15.85;57.90;99306.97;5098391;28;8833;-58
2023/07/03 01:03:53;;;;;;;;;3.50;3.50;;;;;15.82;57.83;99302.78;5098117;28;8810;-60
2023/07/03 01:06:20;;;;;;;;;1.00;1.00;;;;;15.81;57.75;99301.09;5098080;28;8838;-59
2023/07/03 01:08:48;;;;;;;;;3.00;1.00;;;;;15.83;57.93;99306.28;5098089;28;8832;-60
2023/07/03 01:11:16;;;;;;;;;4.00;3.50;;;;;15.83;57.37;99300.91;5097761;28;8822;-60
2023/07/03 01:13:43;;;;;;;;;6.25;5.00;;;;;15.84;58.29;99305.28;5098038;28;8822;-60
2023/07/03 01:16:11;;;;;;;;;3.00;3.00;;;;;15.83;57.78;99303.59;5097632;28;8837;-60
2023/07/03 01:18:38;;;;;;;;;1.00;1.00;;;;;15.79;57.71;99303.09;5098210;28;8834;-59
2023/07/03 01:21:06;;;;;;;;;3.50;3.50;;;;;15.78;57.45;99298.72;5098797;28;8822;-59
2023/07/03 01:23:34;;;;;;;;;1.50;1.50;;;;;15.76;58.04;99297.25;5098086;28;8802;-59
2023/07/03 01:26:02;;;;;;;;;0.50;0.50;;;;;15.72;57.91;99294.06;5097470;28;8825;-57
2023/07/03 01:28:29;;;;;;;;;3.25;3.25;;;;;15.69;57.71;99299.75;5097449;28;8810;-57
2023/07/03 01:30:57;;;;;;;;;3.50;3.50;;;;;15.63;58.08;99295.06;5097843;28;8825;-58
2023/07/03 01:33:25;;;;;;;;;2.50;2.50;;;;;15.58;58.34;99294.75;5097665;28;8941;-59
2023/07/03 01:35:53;;;;;;;;;1.00;1.00;;;;;15.55;58.67;99302.31;5097883;28;8849;-59
2023/07/03 01:38:20;;;;;;;;;4.00;4.00;;;;;15.49;58.62;99294.94;5097877;28;8822;-59
2023/07/03 01:40:48;;;;;;;;;4.00;3.50;;;;;15.45;58.30;99296.25;5097245;28;8814;-58
2023/07/03 01:43:16;;;;;;;;;6.00;4.00;;;;;15.40;58.21;99298.63;5098172;28;8802;-57
2023/07/03 01:45:44;;;;;;;;;5.50;3.25;;;;;15.36;59.00;99299.94;5096682;28;8846;-57
2023/07/03 01:48:12;;;;;;;;;3.00;2.00;;;;;15.30;58.28;99297.91;5097521;28;8846;-58
2023/07/03 01:50:40;;;;;;;;;3.25;3.00;;;;;15.26;59.13;99297.41;5097478;28;8806;-59
2023/07/03 01:53:07;;;;;;;;;2.50;2.50;;;;;15.24;59.22;99295.91;5097245;28;8816;-58
2023/07/03 01:55:35;;;;;;;;;1.00;1.00;;;;;15.21;59.12;99291.72;5096738;28;9456;-57
2023/07/03 01:58:03;;;;;;;;;3.75;3.00;;;;;15.19;59.26;99293.72;5096769;28;8818;-59
2023/07/03 02:00:31;;;;;;;;;3.50;3.50;;;;;15.20;58.66;99291.88;5097329;28;8857;-59
2023/07/03 02:02:59;;;;;;;;;3.00;3.00;;;;;15.20;58.72;99294.56;5096890;28;8859;-57
2023/07/03 02:05:27;;;;;;;;;6.50;5.50;;;;;15.17;58.79;99290.34;5097409;28;8841;-60
2023/07/03 02:07:55;;;;;;;;;1.00;0.50;;;;;15.13;59.48;99294.41;5096955;28;8826;-58
2023/07/03 02:10:22;;;;;;;;;3.00;3.00;;;;;15.08;58.95;99296.72;5096859;28;8925;-58
2023/07/03 02:12:50;;;;;;;;;3.00;3.00;;;;;15.02;59.20;99286.66;5096686;28;8861;-60
2023/07/03 02:15:18;;;;;;;;;3.75;3.25;;;;;14.96;59.31;99294.53;5097330;28;8837;-58
2023/07/03 02:17:52;;;;;;;;;1.00;1.00;;;;;14.91;59.25;99288.81;5095935;28;8818;-59
2023/07/03 02:20:19;;;;;;;;;3.50;3.00;;;;;14.84;60.04;99288.66;5095319;28;8881;-58
2023/07/03 02:22:47;;;;;;;;;3.25;3.25;;;;;14.81;60.16;99296.19;5095298;28;8810;-57
2023/07/03 02:25:16;;;;;;;;;6.00;3.00;;;;;14.76;59.96;99290.47;5095835;28;8832;-58
2023/07/03 02:27:44;;;;;;;;;0.00;0.00;;;;;14.73;60.02;99298.84;5095944;28;8818;-58
2023/07/03 02:30:11;;;;;;;;;2.00;2.00;;;;;14.71;59.81;99300.88;5096015;28;8818;-59
2023/07/03 02:32:39;;;;;;;;;3.25;3.25;;;;;14.69;59.81;99295.66;5095631;28;8818;-57
2023/07/03 02:35:16;;;;;;;;;3.50;3.50;;;;;14.67;60.47;99292.31;5097061;28;9480;-59
2023/07/03 02:37:44;;;;;;;;;4.00;4.00;;;;;14.65;59.99;99293.47;5096272;28;8940;-57
2023/07/03 02:40:13;;;;;;;;;1.00;1.00;;;;;14.65;59.96;99288.09;5095882;28;8838;-57
2023/07/03 02:42:41;;;;;;;;;3.00;3.00;;;;;14.64;60.45;99297.97;5095878;28;8860;-59
2023/07/03 02:45:08;;;;;;;;;4.00;3.50;;;;;14.66;60.48;99289.78;5096209;28;8814;-59
2023/07/03 02:47:36;;;;;;;;;5.50;4.00;;;;;14.67;60.84;99284.28;5096281;28;8838;-59
2023/07/03 02:50:05;;;;;;;;;3.00;3.00;;;;;14.70;60.47;99285.75;5096705;28;8814;-58
2023/07/03 02:52:32;;;;;;;;;3.75;3.75;;;;;14.69;60.47;99281.41;5096678;28;8853;-57
2023/07/03 02:55:00;;;;;;;;;3.50;3.50;;;;;14.69;60.22;99278.72;5095862;28;8844;-60
2023/07/03 02:57:28;;;;;;;;;1.00;1.00;;;;;14.69;60.63;99282.25;5096583;28;9452;-59
2023/07/03 02:59:55;;;;;;;;;3.00;3.00;;;;;14.71;60.15;99288.28;5095866;28;9496;-60
2023/07/03 03:02:23;;;;;;;;;1.00;1.00;;;;;14.73;60.45;99286.25;5096066;28;8822;-56
2023/07/03 03:04:51;;;;;;;;;4.00;3.75;;;;;14.75;60.37;99280.75;5096003;28;8915;-59
2023/07/03 03:07:19;;;;;;;;;4.00;3.00;;;;;14.76;60.73;99280.59;5095287;28;8829;-58
2023/07/03 03:09:47;;;;;;;;;3.00;3.00;;;;;14.78;60.38;99283.94;5075746;28;8846;-59
2023/07/03 03:12:15;;;;;;;;;4.00;3.75;;;;;14.80;60.63;99281.09;5076234;28;8877;-59
2023/07/03 03:14:42;;;;;;;;;3.75;3.00;;;;;14.80;60.02;99278.44;5096031;28;8829;-59
2023/07/03 03:17:10;;;;;;;;;1.50;1.50;;;;;14.80;60.02;99270.38;5095845;28;8838;-58
2023/07/03 03:19:38;;;;;;;;;6.50;3.50;;;;;14.80;60.44;99275.75;5095800;28;8849;-59
2023/07/03 03:22:05;;;;;;;;;5.00;3.50;;;;;14.81;60.28;99272.06;5095841;28;8855;-59
2023/07/03 03:24:33;;;;;;;;;3.00;3.00;;;;;14.79;60.61;99274.06;5095938;28;8808;-58
2023/07/03 03:27:06;;;;;;;;;5.50;4.00;;;;;14.80;60.51;99271.22;5096042;28;8803;-57
2023/07/03 03:29:34;;;;;;;;;1.75;1.50;;;;;14.80;60.50;99270.38;5095467;28;9512;-59
2023/07/03 03:32:02;;;;;;;;;3.75;3.00;;;;;14.80;60.48;99259.66;5095868;28;8920;-57
2023/07/03 03:34:32;;;;;;;;;3.50;3.00;;;;;14.80;60.37;99260.47;5095814;28;8815;-58
2023/07/03 03:37:00;;;;;;;;;1.50;1.50;;;;;14.80;60.47;99259.66;5095679;28;8802;-59
2023/07/03 03:39:28;;;;;;;;;3.25;3.25;;;;;14.79;60.42;99274.06;5095647;28;8830;-57
2023/07/03 03:41:55;;;;;;;;;3.25;3.00;;;;;14.80;60.59;99260.47;5095681;28;8845;-57
2023/07/03 03:44:23;;;;;;;;;0.00;0.00;;;;;14.81;60.47;99255.97;5095408;28;8837;-57
2023/07/03 03:46:51;;;;;;;;;1.50;1.00;;;;;14.82;60.88;99263.00;5095597;28;8818;-57
2023/07/03 03:49:19;;;;;;;;;3.00;3.00;;;;;14.82;61.04;99257.66;5095941;28;8885;-58
2023/07/03 03:51:47;;;;;;;;;3.50;3.00;;;;;14.82;60.75;99257.66;5095834;28;8845;-58
2023/07/03 03:54:15;;;;;;;;;3.00;2.50;;;;;14.80;61.14;99255.13;5095684;28;8818;-57
2023/07/03 03:56:42;;;;;;;;;1.00;1.00;;;;;14.80;60.64;99256.97;5095432;28;8826;-57
2023/07/03 03:59:10;;;;;;;;;3.25;3.25;;;;;14.80;61.07;99252.44;5095051;28;8832;-57
2023/07/03 04:01:38;;;;;;;;;3.50;3.50;;;;;14.79;61.39;99258.00;5094973;28;8834;-59
2023/07/03 04:04:06;;;;;;;;;1.00;1.00;;;;;14.78;61.25;99251.78;5095094;28;8837;-59
2023/07/03 04:06:36;;;;;;;;;1.50;1.50;;;;;14.78;61.24;99253.59;5095271;28;8857;-58
2023/07/03 04:09:04;;;;;;;;;3.25;2.25;;;;;14.77;61.20;99258.16;5095541;28;8830;-59
2023/07/03 04:11:31;;;;;;;;;1.00;1.00;;;;;14.77;61.49;99260.81;5095228;28;8834;-58
2023/07/03 04:14:01;;;;;;;;;0.75;0.75;;;;;14.77;61.75;99255.47;5094781;28;8821;-58
2023/07/03 04:16:29;;;;;;;;;3.50;3.50;;;;;14.79;61.60;99260.66;5093655;28;8834;-60
2023/07/03 04:18:56;;;;;;;;;0.75;0.75;;;;;14.80;61.59;99265.84;5098703;28;8933;-59
2023/07/03 04:21:24;;;;;;;;;3.50;3.50;;;;;14.84;61.52;99277.06;5098322;28;8834;-56
2023/07/03 04:23:52;;;;;;;;;0.50;0.50;;;;;14.88;61.54;99267.72;5098018;28;8841;-58
2023/07/03 04:26:20;;;;;;;;;4.00;2.00;;;;;14.92;61.54;99280.63;5097916;28;8818;-58
2023/07/03 04:28:48;;;;;;;;;3.50;3.00;;;;;14.95;61.07;99272.22;5097838;28;8826;-57
2023/07/03 04:31:15;;;;;;;;;1.50;1.00;;;;;15.01;61.16;99278.81;5097727;28;8830;-59
2023/07/03 04:33:45;;;;;;;;;3.00;2.00;;;;;15.05;61.29;99274.75;5098126;28;8857;-59
2023/07/03 04:36:13;;;;;;;;;3.75;3.00;;;;;15.09;61.32;99273.44;5097917;28;9506;-58
2023/07/03 04:38:42;;;;;;;;;3.50;3.00;;;;;15.12;60.89;99278.47;5097452;28;9453;-60
2023/07/03 04:41:10;;;;;;;;;3.00;3.00;;;;;15.16;60.82;99287.88;5097960;28;9812;-59
2023/07/03 04:43:44;;;;;;;;;4.50;3.50;;;;;15.19;60.89;99282.16;5098598;28;8822;-59
2023/07/03 04:46:13;;;;;;;;;3.75;3.50;;;;;15.23;61.31;99295.06;5097677;28;8818;-59
2023/07/03 04:48:40;;;;;;;;;3.00;2.00;;;;;15.26;60.67;99283.97;5097264;28;8810;-59
2023/07/03 04:51:09;;;;;;;;;4.00;3.25;;;;;15.29;61.49;99290.88;5097359;28;8794;-59
2023/07/03 04:53:37;;;;;;;;;4.00;3.25;;;;;15.26;61.34;99289.34;5096719;28;8810;-59
2023/07/03 04:56:05;;;;;;;;;2.50;2.50;;;;;15.23;61.32;99289.69;5096983;28;8824;-58
2023/07/03 04:58:33;;;;;;;;;2.50;2.50;;;;;15.21;60.84;99286.34;5097661;28;8826;-59
2023/07/03 05:01:00;;;;;;;;;3.00;3.00;;;;;15.19;60.93;99290.19;5097727;28;8830;-58
2023/07/03 05:03:28;;;;;;;;;4.00;4.00;;;;;15.20;61.81;99290.03;5096641;28;8819;-57
2023/07/03 05:05:57;;;;;;;;;3.00;3.00;;;;;15.26;61.00;99291.22;5097274;28;8944;-57
2023/07/03 05:08:25;;;;;;;;;2.00;2.00;;;;;15.32;60.91;99287.91;5097808;28;8802;-58
2023/07/03 05:10:52;;;;;;;;;4.00;3.25;;;;;15.40;60.99;99286.03;5097497;28;8829;-57
2023/07/03 05:13:20;;;;;;;;;3.50;3.00;;;;;15.48;60.54;99286.03;5097055;28;8806;-57
2023/07/03 05:15:48;;;;;;;;;4.00;4.00;;;;;15.57;60.62;99281.50;5096388;28;8854;-58
2023/07/03 05:18:16;;;;;;;;;4.00;4.00;;;;;15.65;60.71;99278.81;5096632;28;8855;-57
2023/07/03 05:20:45;;;;;;;;;4.00;3.75;;;;;15.73;60.69;99282.31;5096121;28;8834;-59
2023/07/03 05:23:13;;;;;;;;;4.00;3.50;;;;;15.85;60.50;99291.69;5096033;28;8824;-57
2023/07/03 05:25:41;;;;;;;;;4.50;4.00;;;;;15.93;60.42;99288.16;5096145;28;8832;-58
2023/07/03 05:28:08;;;;;;;;;2.50;1.50;;;;;15.98;60.28;99293.81;5096207;28;8837;-57
2023/07/03 05:30:36;;;;;;;;;3.33;3.33;;;;;16.02;60.27;99281.75;5097133;28;8842;-57
2023/07/03 05:33:04;;;;;;;;;7.00;7.00;;;;;16.13;60.46;99284.91;5097452;28;8879;-57
2023/07/03 05:35:31;;;;;;;;;4.00;4.00;;;;;16.22;59.95;99291.91;5097291;28;8830;-60
2023/07/03 05:38:00;;;;;;;;;3.50;3.50;;;;;16.32;59.47;99288.00;5097399;28;8810;-58
2023/07/03 05:40:28;;;;;;;;;3.00;3.00;;;;;16.35;60.39;99290.34;5096817;28;9527;-57
2023/07/03 05:42:57;;;;;;;;;1.00;0.00;;;;;16.37;60.65;99295.56;5097629;28;8825;-58
2023/07/03 05:45:25;;;;;;;;;8.50;6.25;;;;;16.35;60.65;99295.72;5097351;28;8843;-58
2023/07/03 05:47:52;;;;;;;;;1.50;1.50;;;;;16.35;60.53;99295.72;5096395;28;8838;-57
2023/07/03 05:50:20;;;;;;;;;3.00;3.00;;;;;16.40;60.23;99297.94;5096925;28;8822;-59
2023/07/03 05:52:48;;;;;;;;;3.75;3.00;;;;;16.40;60.83;99296.06;5096589;28;8871;-60
2023/07/03 05:55:16;;;;;;;;;3.00;3.00;;;;;16.42;60.54;99294.03;5096668;28;8842;-60
2023/07/03 05:57:44;;;;;;;;;3.00;3.00;;;;;16.42;60.45;99303.97;5096594;28;8947;-57
2023/07/03 06:00:13;;;;;;;;;3.00;3.00;;;;;16.45;61.04;99296.38;5096565;28;8856;-58
2023/07/03 06:02:41;;;;;;;;;5.50;5.00;;;;;16.47;60.45;99298.91;5096315;28;8864;-57
2023/07/03 06:05:09;;;;;;;;;3.80;3.00;;;;;16.48;60.71;99306.78;5096144;28;9512;-57
2023/07/03 06:07:37;;;;;;;;;1.80;1.40;;;;;16.52;60.35;99296.50;5096126;28;8853;-59
2023/07/03 06:10:05;;;;;;;;;0.20;0.20;;;;;16.55;60.46;99310.44;5095910;28;8850;-59
2023/07/03 06:12:33;;;;;;;;;3.50;3.50;;;;;16.51;61.22;99309.13;5096103;28;8825;-58
2023/07/03 06:15:01;;;;;;;;;1.00;1.00;;;;;16.52;60.92;99313.50;5095944;28;8830;-58
2023/07/03 06:17:28;;;;;;;;;3.50;3.00;;;;;16.59;60.81;99309.09;5094881;28;8834;-57
2023/07/03 06:19:57;;;;;;;;;3.20;3.00;;;;;16.65;60.35;99318.31;5095487;28;8819;-58
2023/07/03 06:22:24;;;;;;;;;4.00;4.00;;;;;16.67;60.64;99311.75;5095646;28;8814;-57
2023/07/03 06:24:52;;;;;;;;;6.00;4.40;;;;;16.70;60.73;99319.44;5095244;28;8818;-60
2023/07/03 06:27:20;;;;;;;;;4.00;3.00;;;;;16.74;60.82;99323.47;5095464;28;8840;-57
2023/07/03 06:29:48;;;;;;;;;3.00;3.00;;;;;16.81;60.13;99307.47;5095089;28;8833;-58
2023/07/03 06:32:18;;;;;;;;;7.40;7.40;;;;;16.89;60.31;99319.03;5095152;28;8828;-60
2023/07/03 06:34:46;;;;;;;;;0.40;0.20;;;;;16.93;60.21;99324.88;5094551;28;8810;-59
2023/07/03 06:37:13;;;;;;;;;3.40;3.20;;;;;17.02;60.03;99323.81;5094684;28;8818;-58
2023/07/03 06:39:41;;;;;;;;;6.00;4.00;;;;;17.09;59.54;99328.28;5094978;28;8842;-59
2023/07/03 06:42:12;;;;;;;;;3.00;3.00;;;;;17.14;59.88;99338.50;5094004;28;8834;-57
2023/07/03 06:44:43;;;;;;;;;3.00;3.00;;;;;17.15;59.78;99332.16;5092936;28;8992;-57
2023/07/03 06:47:11;;;;;;;;;4.80;4.00;;;;;17.16;59.64;99336.50;5093294;28;8838;-58
2023/07/03 06:49:38;;;;;;;;;4.40;4.40;;;;;17.16;60.05;99334.63;5093704;28;8852;-58
2023/07/03 06:52:06;;;;;;;;;4.40;3.00;;;;;17.19;59.87;99345.06;5093697;28;8941;-57
2023/07/03 06:54:34;;;;;;;;;4.00;3.40;;;;;17.21;60.05;99336.78;5093771;28;9486;-57
2023/07/03 06:57:03;;;;;;;;;4.40;3.20;;;;;17.23;60.09;99346.38;5094907;28;9616;-59
2023/07/03 06:59:30;;;;;;;;;4.00;4.00;;;;;17.25;59.91;99344.31;5095040;28;8830;-58
2023/07/03 07:01:58;;;;;;;;;1.40;1.00;;;;;17.24;60.35;99341.84;5095480;28;8842;-59
2023/07/03 07:04:27;;;;;;;;;5.20;4.40;;;;;17.20;60.50;99352.13;5095038;28;8818;-59
2023/07/03 07:06:58;;;;;;;;;4.40;4.40;;;;;17.19;60.02;99349.59;5094664;28;8850;-57
2023/07/03 07:09:26;;;;;;;;;4.40;4.40;;;;;17.18;60.38;99343.38;5094677;28;8830;-60
2023/07/03 07:11:55;;;;;;;;;4.00;4.00;;;;;17.20;60.42;99341.34;5095081;28;8810;-57
2023/07/03 07:14:23;;;;;;;;;6.00;6.00;;;;;17.28;60.06;99343.97;5095034;28;8949;-58
2023/07/03 07:16:51;;;;;;;;;4.80;4.80;;;;;17.41;59.80;99343.41;5095344;28;8927;-57
2023/07/03 07:19:19;;;;;;;;;3.60;3.60;;;;;17.50;59.64;99337.78;5094664;28;8800;-57
2023/07/03 07:21:47;;;;;;;;;5.40;3.80;;;;;17.57;59.88;99345.97;5094870;28;8843;-58
2023/07/03 07:24:15;;;;;;;;;3.60;3.60;;;;;17.58;59.96;99340.41;5094492;28;8837;-59
2023/07/03 07:26:43;;;;;;;;;4.40;3.00;;;;;17.64;59.74;99353.16;5094225;28;8840;-59
2023/07/03 07:29:11;;;;;;;;;6.40;4.00;;;;;17.68;59.36;99351.78;5094135;28;8822;-58
2023/07/03 07:31:39;;;;;;;;;6.00;5.60;;;;;17.83;59.55;99359.91;5094506;28;8834;-58
2023/07/03 07:34:09;;;;;;;;;4.00;3.00;;;;;17.99;59.04;99354.38;5094880;28;8834;-59
2023/07/03 07:36:38;;;;;;;;;5.20;5.20;;;;;18.15;58.92;99344.25;5094542;28;9707;-58
2023/07/03 07:39:06;;;;;;;;;7.00;6.20;;;;;18.28;58.64;99347.13;5094723;28;8859;-58
2023/07/03 07:41:34;;;;;;;;;6.60;4.00;;;;;18.31;57.91;99346.81;5094949;28;8839;-59
2023/07/03 07:44:02;;;;;;;;;7.00;6.60;;;;;18.32;57.83;99358.41;5095638;28;8892;-60
2023/07/03 07:46:30;;;;;;;;;8.60;7.20;;;;;18.22;58.66;99344.34;5094915;28;8961;-58
2023/07/03 07:48:58;;;;;;;;;8.80;4.80;;;;;18.24;58.51;99355.78;5094969;28;8853;-58
2023/07/03 07:51:27;;;;;;;;;7.80;7.00;;;;;18.38;58.54;99341.50;5094098;28;8819;-59
2023/07/03 07:53:55;;;;;;;;;6.20;6.00;;;;;18.54;57.76;99336.78;5097726;28;8827;-57
2023/07/03 07:56:23;;;;;;;;;5.20;4.80;;;;;18.72;57.25;99336.34;5098166;28;8827;-59
2023/07/03 07:58:51;;;;;;;;;4.00;4.00;;;;;18.85;56.89;99334.69;5098238;28;8831;-59
2023/07/03 08:01:19;;;;;;;;;7.40;6.80;;;;;18.93;56.96;99337.25;5097202;28;8866;-58
2023/07/03 08:03:48;;;;;;;;;6.80;6.00;;;;;18.91;56.80;99342.00;5097376;28;8912;-58
2023/07/03 08:06:16;;;;;;;;;5.80;5.80;;;;;18.91;56.89;99330.38;5097237;28;8833;-59
2023/07/03 08:08:44;;;;;;;;;7.40;6.80;;;;;18.88;57.06;99331.59;5097519;28;9517;-58
2023/07/03 08:11:13;;;;;;;;;5.60;4.00;;;;;18.93;57.14;99331.88;5096922;28;8911;-58
2023/07/03 08:13:41;;;;;;;;;6.00;6.00;;;;;19.02;56.77;99329.88;5085368;28;8806;-57
2023/07/03 08:16:09;;;;;;;;;6.00;4.80;;;;;19.14;56.61;99329.22;5097205;28;8842;-57
2023/07/03 08:18:37;;;;;;;;;5.80;5.80;;;;;19.28;56.19;99333.72;5097075;28;9872;-57
2023/07/03 08:21:05;;;;;;;;;8.40;8.00;;;;;19.33;56.23;99330.44;5098061;28;8912;-60
2023/07/03 08:23:34;;;;;;;;;6.20;4.80;;;;;19.34;55.92;99337.53;5097674;28;8825;-58
2023/07/03 08:26:02;;;;;;;;;4.80;4.80;;;;;19.33;56.04;99336.69;5097775;28;9564;-59
2023/07/03 08:28:30;;;;;;;;;4.00;3.00;;;;;19.33;55.94;99342.09;5097745;28;8833;-60
2023/07/03 08:30:58;;;;;;;;;3.20;3.20;;;;;19.35;55.89;99340.03;5096139;28;8822;-60
2023/07/03 08:33:27;;;;;;;;;3.00;3.00;;;;;19.50;55.50;99348.09;5096923;28;8814;-60
2023/07/03 08:35:55;;;;;;;;;6.80;6.00;;;;;19.50;55.64;99346.22;5096380;28;8814;-59
2023/07/03 08:38:26;;;;;;;;;6.40;5.20;;;;;19.39;55.48;99346.75;5096008;28;8920;-59
2023/07/03 08:40:54;;;;;;;;;9.00;6.80;;;;;19.26;55.90;99352.00;5095790;28;8838;-58
2023/07/03 08:43:22;;;;;;;;;6.00;4.00;;;;;19.16;56.05;99354.13;5096792;28;8829;-60
2023/07/03 08:45:51;;;;;;;;;6.00;6.00;;;;;19.05;56.47;99351.91;5096089;28;8842;-59
2023/07/03 08:48:19;;;;;;;;;7.00;7.00;;;;;18.95;56.33;99346.00;5097138;28;8849;-59
2023/07/03 08:50:47;;;;;;;;;4.00;3.60;;;;;18.92;56.52;99346.38;5096380;28;8826;-59
2023/07/03 08:53:15;;;;;;;;;5.20;4.00;;;;;18.98;56.45;99344.78;5096720;28;8973;-58
2023/07/03 08:55:43;;;;;;;;;4.00;3.80;;;;;19.21;55.83;99349.00;5097081;28;8814;-59
2023/07/03 08:58:12;;;;;;;;;6.40;4.80;;;;;19.47;55.16;99338.50;5097075;28;8810;-60
2023/07/03 09:00:41;;;;;;;;;5.80;5.20;;;;;19.56;54.86;99350.84;5096651;28;8860;-58
2023/07/03 09:03:09;;;;;;;;;4.00;4.00;;;;;19.51;55.15;99353.28;5096578;28;8845;-59
2023/07/03 09:05:37;;;;;;;;;5.80;3.60;;;;;19.39;55.45;99362.09;5096570;28;8960;-58
2023/07/03 09:08:05;;;;;;;;;4.40;3.20;;;;;19.32;55.25;99355.78;5097062;28;8806;-60
2023/07/03 09:10:33;;;;;;;;;2.60;2.60;;;;;19.26;55.28;99361.97;5096908;28;8814;-60
2023/07/03 09:13:01;;;;;;;;;3.40;3.40;;;;;19.16;55.80;99362.25;5096866;28;8834;-58
2023/07/03 09:15:29;;;;;;;;;4.00;3.40;;;;;19.15;55.24;99363.28;5097320;28;8814;-57
2023/07/03 09:17:57;;;;;;;;;4.40;3.00;;;;;19.14;55.58;99367.00;5096646;28;8810;-58
2023/07/03 09:20:26;;;;;;;;;4.00;4.00;;;;;19.16;55.60;99364.94;5096955;28;8824;-58
2023/07/03 09:22:54;;;;;;;;;3.60;3.00;;;;;19.31;54.76;99368.47;5096116;28;8839;-58
2023/07/03 09:25:22;;;;;;;;;6.00;5.20;;;;;19.54;54.59;99365.56;5096626;28;8902;-60
2023/07/03 09:27:50;;;;;;;;;4.00;4.00;;;;;19.60;54.23;99364.81;5096187;28;8829;-59
2023/07/03 09:30:18;;;;;;;;;3.40;3.00;;;;;19.61;54.03;99361.91;5096102;28;8826;-58
2023/07/03 09:32:46;;;;;;;;;3.00;3.00;;;;;19.60;54.24;99364.81;5096928;28;8838;-58
2023/07/03 09:35:15;;;;;;;;;5.40;4.00;;;;;19.63;54.14;99370.66;5096301;28;8821;-58
2023/07/03 09:37:43;;;;;;;;;0.20;0.20;;;;;19.67;54.41;99374.66;5096548;28;8904;-58
2023/07/03 09:40:12;;;;;;;;;4.40;4.00;;;;;19.90;53.83;99374.44;5096817;28;8854;-58
2023/07/03 09:42:40;;;;;;;;;4.00;4.00;;;;;20.19;53.06;99374.28;5096999;28;8977;-57
2023/07/03 09:45:08;;;;;;;;;4.60;4.40;;;;;20.31;52.40;99368.13;5097136;28;8826;-59
2023/07/03 09:47:37;;;;;;;;;4.00;4.00;;;;;20.48;52.00;99355.16;5096567;28;8839;-58
2023/07/03 09:50:05;;;;;;;;;4.20;4.20;;;;;20.74;52.01;99361.53;5096230;28;8834;-58
2023/07/03 09:52:34;;;;;;;;;3.20;2.40;;;;;20.90;50.83;99374.75;5095715;28;8862;-59
2023/07/03 09:55:02;;;;;;;;;4.20;2.00;;;;;20.90;51.75;99372.88;5095003;28;8870;-58
2023/07/03 09:57:30;;;;;;;;;5.80;4.20;;;;;20.91;51.35;99376.44;5095380;28;8859;-59
2023/07/03 09:59:58;;;;;;;;;4.00;4.00;;;;;20.97;51.07;99379.16;5094835;28;9528;-57
2023/07/03 10:02:26;;;;;;;;;6.60;6.20;;;;;21.26;50.71;99376.13;5094816;28;8818;-59
2023/07/03 10:04:57;;;;;;;;;4.20;4.00;;;;;21.49;49.69;99378.50;5094658;28;8905;-58
2023/07/03 10:07:28;;;;;;;;;1.80;1.00;;;;;21.47;49.58;99373.28;5095470;28;8828;-58
2023/07/03 10:09:56;;;;;;;;;1.80;1.80;;;;;21.34;50.07;99365.13;5095661;28;8833;-60
2023/07/03 10:12:27;;;;;;;;;3.80;3.60;;;;;21.10;50.78;99371.09;5096098;28;8790;-60
2023/07/03 10:14:56;;;;;;;;;2.00;1.60;;;;;20.90;51.23;99382.88;5095219;28;8810;-58
2023/07/03 10:17:24;;;;;;;;;4.00;3.60;;;;;20.76;50.87;99383.81;5095362;28;8838;-58
2023/07/03 10:19:52;;;;;;;;;2.00;2.00;;;;;20.98;50.64;99375.44;5095431;28;9816;-58
2023/07/03 10:22:20;;;;;;;;;3.20;2.00;;;;;21.50;49.27;99377.47;5094661;28;8838;-60
2023/07/03 10:24:50;;;;;;;;;2.00;2.00;;;;;22.23;47.98;99371.94;5094471;28;8844;-58
2023/07/03 10:27:19;;;;;;;;;4.00;2.00;;;;;22.81;47.50;99354.69;5094949;28;8822;-57
2023/07/03 10:29:47;;;;;;;;;2.00;2.00;;;;;22.89;47.02;99360.72;5094752;28;8900;-59
2023/07/03 10:32:15;;;;;;;;;5.40;5.00;;;;;22.74;47.56;99367.47;5095175;28;8919;-59
2023/07/03 10:34:43;;;;;;;;;4.60;4.00;;;;;22.94;47.05;99370.94;5095423;28;8824;-59
2023/07/03 10:37:11;;;;;;;;;4.20;4.00;;;;;22.70;47.10;99367.03;5094921;28;8834;-60
2023/07/03 10:39:40;;;;;;;;;2.40;2.00;;;;;22.26;47.68;99379.63;5095385;28;8850;-58
2023/07/03 10:42:09;;;;;;;;;3.20;3.20;;;;;21.92;48.31;99374.41;5094714;28;8907;-58
2023/07/03 10:44:38;;;;;;;;;6.60;2.80;;;;;21.67;48.33;99378.78;5078704;28;8847;-58
2023/07/03 10:47:06;;;;;;;;;4.00;2.40;;;;;21.89;48.33;99369.41;5095187;28;8834;-58
2023/07/03 10:49:34;;;;;;;;;4.00;3.20;;;;;22.10;47.96;99382.78;5094907;28;8840;-60
2023/07/03 10:52:03;;;;;;;;;5.00;4.60;;;;;22.51;46.64;99369.81;5095112;28;8963;-59
2023/07/03 10:54:31;;;;;;;;;5.00;4.00;;;;;23.09;45.85;99374.22;5093903;28;8902;-59
2023/07/03 10:56:59;;;;;;;;;2.00;2.00;;;;;23.35;45.38;99385.00;5094681;28;8869;-60
2023/07/03 10:59:27;;;;;;;;;4.00;2.00;;;;;23.27;45.10;99377.94;5093750;28;8846;-59
2023/07/03 11:01:55;;;;;;;;;2.80;2.80;;;;;23.07;45.43;99379.06;5094226;28;8842;-58
2023/07/03 11:04:24;;;;;;;;;4.00;4.00;;;;;22.94;45.50;99377.22;5093483;28;8829;-59
2023/07/03 11:06:53;;;;;;;;;4.20;2.40;;;;;22.92;45.57;99375.78;5093853;28;8882;-59
2023/07/03 11:09:21;;;;;;;;;3.20;2.00;;;;;23.13;45.03;99373.59;5094051;28;8822;-58
2023/07/03 11:11:49;;;;;;;;;1.80;1.40;;;;;23.28;44.42;99378.78;5093802;28;9543;-58
2023/07/03 11:14:17;;;;;;;;;4.00;4.00;;;;;23.28;44.55;99381.50;5093509;28;8829;-58
2023/07/03 11:16:45;;;;;;;;;4.00;3.20;;;;;23.07;44.92;99381.78;5093744;28;8826;-59
2023/07/03 11:19:13;;;;;;;;;4.40;2.80;;;;;22.80;45.17;99399.19;5093407;28;8822;-58
2023/07/03 11:21:44;;;;;;;;;1.00;1.00;;;;;22.52;45.93;99390.47;5094275;28;8872;-60
2023/07/03 11:24:15;;;;;;;;;4.00;3.20;;;;;22.59;44.98;99396.72;5094230;28;8803;-59
2023/07/03 11:26:44;;;;;;;;;5.00;4.80;;;;;22.51;45.59;99396.94;5094380;28;9488;-58
2023/07/03 11:29:15;;;;;;;;;4.20;4.00;;;;;22.26;45.99;99396.75;5094346;28;8782;-59
2023/07/03 11:31:43;;;;;;;;;3.20;2.20;;;;;22.20;46.03;99394.88;5094959;28;8838;-58
2023/07/03 11:34:13;;;;;;;;;1.00;1.00;;;;;22.18;45.84;99393.41;5095010;28;8822;-57
2023/07/03 11:36:44;;;;;;;;;4.40;2.40;;;;;22.24;45.51;99406.97;5094623;28;8779;-59
2023/07/03 11:39:19;;;;;;;;;2.80;2.00;;;;;22.64;44.77;99403.22;5094541;28;8844;-59
2023/07/03 11:41:51;;;;;;;;;2.00;2.00;;;;;22.81;44.87;99403.56;5094486;28;8796;-59
2023/07/03 11:44:21;;;;;;;;;2.00;1.80;;;;;22.91;43.74;99403.97;5094026;28;8788;-58
2023/07/03 11:46:54;;;;;;;;;3.60;2.00;;;;;22.98;44.19;99391.22;5094498;28;8932;-60